Time;durP1;ratioP1;P1;durP2;ratioP2;P2;SDS_P1;SDS_P2;PMS_P1;PMS_P2;Temp;Humidity;BMP_temperature;BMP_pressure;BME280_temperature;BME280_humidity;BME280_pressure;Samples;Min_cycle;Max_cycle;Signal;HPM_P1;HPM_P2
2021/04/19 00:01:36;;;;;;;15.57;5.37;;;9.20;96.20;;;;;;4993082;28;20467;-83
2021/04/19 00:04:03;;;;;;;24.33;5.97;;;9.10;98.90;;;;;;4992823;28;20570;-87
2021/04/19 00:06:31;;;;;;;13.80;5.17;;;9.10;99.40;;;;;;4992894;28;20496;-82
2021/04/19 00:08:57;;;;;;;14.90;4.47;;;9.10;99.80;;;;;;4991428;28;20794;-84
2021/04/19 00:11:24;;;;;;;11.43;3.40;;;9.10;97.70;;;;;;4992992;28;20508;-86
2021/04/19 00:13:51;;;;;;;19.87;5.33;;;9.10;95.30;;;;;;4992740;28;20457;-86
2021/04/19 00:16:17;;;;;;;16.53;4.47;;;9.20;94.50;;;;;;4992987;28;20497;-84
2021/04/19 00:18:44;;;;;;;18.97;6.10;;;9.20;94.50;;;;;;4994656;28;20862;-86
2021/04/19 00:21:10;;;;;;;16.63;4.70;;;9.10;95.20;;;;;;4996414;28;20461;-85
2021/04/19 00:23:36;;;;;;;14.80;5.47;;;9.20;96.90;;;;;;4995001;28;20535;-82
2021/04/19 00:26:03;;;;;;;17.03;5.90;;;9.00;97.70;;;;;;4996344;28;20577;-86
2021/04/19 00:28:30;;;;;;;15.97;6.50;;;9.00;98.90;;;;;;4995959;28;20478;-85
2021/04/19 00:30:57;;;;;;;22.40;5.97;;;9.00;97.90;;;;;;4996552;28;20857;-85
2021/04/19 00:33:25;;;;;;;17.07;5.53;;;9.00;98.60;;;;;;4995918;28;20898;-85
2021/04/19 00:35:51;;;;;;;13.17;5.50;;;9.00;99.60;;;;;;4996106;28;20537;-82
2021/04/19 00:38:18;;;;;;;14.07;5.93;;;8.90;99.70;;;;;;4994792;28;20464;-85
2021/04/19 00:40:44;;;;;;;16.30;5.77;;;8.90;99.00;;;;;;4995979;28;20551;-83
2021/04/19 00:43:12;;;;;;;14.93;5.67;;;8.90;98.70;;;;;;4995944;28;20488;-84
2021/04/19 00:45:39;;;;;;;14.90;5.10;;;8.90;99.90;;;;;;4996239;28;20560;-84
2021/04/19 00:48:08;;;;;;;15.27;5.90;;;8.80;99.90;;;;;;4995886;28;20465;-86
2021/04/19 00:50:34;;;;;;;15.67;5.30;;;8.90;98.80;;;;;;4995564;28;20500;-85
2021/04/19 00:53:02;;;;;;;16.90;6.20;;;8.80;97.10;;;;;;4994720;28;20971;-82
2021/04/19 00:55:29;;;;;;;15.60;6.57;;;8.90;97.60;;;;;;4977360;28;20469;-83
2021/04/19 00:57:55;;;;;;;17.10;6.23;;;8.80;99.50;;;;;;4976185;28;20459;-81
2021/04/19 01:00:26;;;;;;;13.20;5.93;;;8.80;99.90;;;;;;4994599;28;20484;-85
2021/04/19 01:02:52;;;;;;;13.77;5.67;;;8.70;99.90;;;;;;4995817;28;20792;-84
2021/04/19 01:05:24;;;;;;;19.97;6.50;;;8.60;99.90;;;;;;4998044;28;20624;-86
2021/04/19 01:07:50;;;;;;;16.10;6.17;;;8.60;99.90;;;;;;4995524;28;20515;-82
2021/04/19 01:10:17;;;;;;;12.40;4.73;;;8.50;99.90;;;;;;4993850;28;20483;-83
2021/04/19 01:12:43;;;;;;;25.07;5.37;;;8.50;99.90;;;;;;4995508;28;20579;-84
2021/04/19 01:15:13;;;;;;;16.43;5.27;;;8.50;99.90;;;;;;4996961;28;21048;-81
2021/04/19 01:17:40;;;;;;;15.07;5.37;;;8.40;99.90;;;;;;4995304;28;20515;-84
2021/04/19 01:20:08;;;;;;;15.73;6.20;;;8.40;99.90;;;;;;4994938;28;20456;-85
2021/04/19 01:22:37;;;;;;;14.33;6.13;;;8.50;99.90;;;;;;4995247;28;20465;-83
2021/04/19 01:25:06;;;;;;;13.63;6.07;;;8.40;99.90;;;;;;4994011;28;20499;-84
2021/04/19 01:27:33;;;;;;;13.80;4.87;;;8.50;99.90;;;;;;4995087;28;20487;-84
2021/04/19 01:29:59;;;;;;;11.03;5.97;;;8.50;99.90;;;;;;4994084;28;20496;-85
2021/04/19 01:32:26;;;;;;;12.87;4.60;;;8.50;99.90;;;;;;4994970;28;20822;-85
2021/04/19 01:34:52;;;;;;;14.30;5.20;;;8.50;99.90;;;;;;4994821;28;20549;-81
2021/04/19 01:37:18;;;;;;;16.43;6.00;;;8.60;99.90;;;;;;4995238;28;20663;-82
2021/04/19 01:39:46;;;;;;;14.73;5.70;;;8.60;99.90;;;;;;4993471;28;20453;-83
2021/04/19 01:42:12;;;;;;;14.37;4.70;;;8.40;99.90;;;;;;4994982;28;20454;-85
2021/04/19 01:44:39;;;;;;;16.77;5.20;;;8.40;99.90;;;;;;4994334;28;20462;-84
2021/04/19 01:47:06;;;;;;;23.50;6.10;;;8.40;99.90;;;;;;4995080;28;20446;-81
2021/04/19 01:49:33;;;;;;;15.43;6.03;;;8.50;99.80;;;;;;4994693;28;20473;-86
2021/04/19 01:52:03;;;;;;;14.50;5.97;;;8.40;99.90;;;;;;4994494;28;20961;-82
2021/04/19 01:54:29;;;;;;;15.33;7.23;;;8.50;99.80;;;;;;4993496;28;20453;-85
2021/04/19 01:56:57;;;;;;;12.00;4.30;;;8.40;99.90;;;;;;4994759;28;20457;-83
2021/04/19 01:59:24;;;;;;;13.23;5.13;;;8.40;97.80;;;;;;4994192;28;20532;-83
2021/04/19 02:01:57;;;;;;;16.70;6.60;;;8.40;98.60;;;;;;4994590;28;20548;-83
2021/04/19 02:04:42;;;;;;;15.70;5.83;;;8.40;98.70;;;;;;4994152;28;20541;-83
2021/04/19 02:07:16;;;;;;;17.83;6.80;;;8.40;97.30;;;;;;4994418;28;20829;-84
2021/04/19 02:09:48;;;;;;;11.73;3.53;;;8.40;96.30;;;;;;4992893;28;20488;-81
2021/04/19 02:12:25;;;;;;;13.70;4.60;;;8.40;97.40;;;;;;4994257;28;20493;-84
2021/04/19 02:14:56;;;;;;;13.40;4.20;;;8.40;97.40;;;;;;4994277;28;20547;-83
2021/04/19 02:17:30;;;;;;;12.23;5.10;;;8.40;97.30;;;;;;4994241;28;20456;-85
2021/04/19 02:20:08;;;;;;;21.43;6.57;;;8.40;97.40;;;;;;4994010;28;20545;-83
2021/04/19 02:22:39;;;;;;;21.70;4.70;;;8.40;97.10;;;;;;4994172;28;20816;-84
2021/04/19 02:25:12;;;;;;;16.23;6.27;;;8.30;98.60;;;;;;4992802;28;20502;-84
2021/04/19 02:27:45;;;;;;;14.00;4.90;;;8.20;99.90;;;;;;4994185;28;20794;-84
2021/04/19 02:30:15;;;;;;;13.27;5.40;;;8.20;98.60;;;;;;4993951;28;20555;-83
2021/04/19 02:32:46;;;;;;;12.20;4.70;;;8.10;99.00;;;;;;4994337;28;20785;-85
2021/04/19 02:35:16;;;;;;;14.47;5.13;;;8.00;99.10;;;;;;4993635;28;20456;-85
2021/04/19 02:37:44;;;;;;;10.47;4.40;;;8.00;98.60;;;;;;4993923;28;20457;-84
2021/04/19 02:40:13;;;;;;;14.90;6.50;;;8.00;98.20;;;;;;4992760;28;20464;-82
2021/04/19 02:42:44;;;;;;;13.53;5.53;;;8.00;98.70;;;;;;4993116;28;20821;-82
2021/04/19 02:45:14;;;;;;;14.93;5.30;;;7.90;99.80;;;;;;4993606;28;21028;-82
2021/04/19 02:47:45;;;;;;;17.70;6.63;;;7.80;99.30;;;;;;4994016;28;20465;-85
2021/04/19 02:50:14;;;;;;;17.37;6.60;;;7.90;99.50;;;;;;4993644;28;20549;-83
2021/04/19 02:52:42;;;;;;;14.93;6.40;;;7.80;98.40;;;;;;4993844;28;20550;-84
2021/04/19 02:55:10;;;;;;;12.13;4.80;;;7.90;98.50;;;;;;4992394;28;20914;-83
2021/04/19 02:57:43;;;;;;;13.93;5.17;;;7.80;97.60;;;;;;4992622;28;20473;-80
2021/04/19 03:00:11;;;;;;;14.20;5.77;;;8.00;95.90;;;;;;4993097;28;20807;-84
2021/04/19 03:02:38;;;;;;;13.37;5.33;;;8.00;95.50;;;;;;4994005;28;20450;-82
2021/04/19 03:05:08;;;;;;;13.87;3.83;;;8.10;94.00;;;;;;4993125;28;20815;-85
2021/04/19 03:07:39;;;;;;;11.50;3.70;;;8.10;94.00;;;;;;4992534;28;20459;-83
2021/04/19 03:10:11;;;;;;;12.17;4.33;;;8.00;95.00;;;;;;4992104;28;20483;-81
2021/04/19 03:12:42;;;;;;;12.07;5.20;;;8.00;96.20;;;;;;4983122;28;20491;-84
2021/04/19 03:15:14;;;;;;;14.73;5.53;;;8.00;97.70;;;;;;4992990;28;20468;-83
2021/04/19 03:17:41;;;;;;;15.10;4.60;;;7.90;99.90;;;;;;4993537;28;20461;-81
2021/04/19 03:20:12;;;;;;;14.10;5.10;;;7.80;99.90;;;;;;4992875;28;20483;-84
2021/04/19 03:22:41;;;;;;;11.57;4.83;;;7.80;99.90;;;;;;4992900;28;20489;-82
2021/04/19 03:25:10;;;;;;;14.40;7.53;;;7.70;99.90;;;;;;4991559;28;20478;-83
2021/04/19 03:27:38;;;;;;;10.00;5.93;;;7.60;99.90;;;;;;4974009;28;20541;-82
2021/04/19 03:30:08;;;;;;;16.53;8.03;;;7.60;99.90;;;;;;4986232;28;20458;-83
2021/04/19 03:32:40;;;;;;;18.20;11.40;;;7.50;99.90;;;;;;4993058;28;20541;-83
2021/04/19 03:35:11;;;;;;;17.27;11.07;;;7.50;99.90;;;;;;4991480;28;20540;-79
2021/04/19 03:37:41;;;;;;;14.27;9.73;;;7.40;99.90;;;;;;4988600;28;20471;-83
2021/04/19 03:40:14;;;;;;;13.30;10.70;;;7.40;99.90;;;;;;4991818;28;20964;-80
2021/04/19 03:42:43;;;;;;;14.87;8.80;;;7.40;99.90;;;;;;4993166;28;20459;-82
2021/04/19 03:45:13;;;;;;;19.77;11.13;;;7.30;99.90;;;;;;4992839;28;20569;-82
2021/04/19 03:47:41;;;;;;;17.57;11.37;;;7.40;99.90;;;;;;4993097;28;20543;-84
2021/04/19 03:50:09;;;;;;;14.70;13.13;;;7.50;99.90;;;;;;4992786;28;20463;-82
2021/04/19 03:52:38;;;;;;;14.60;12.10;;;7.50;99.90;;;;;;4993286;28;20458;-83
2021/04/19 03:55:09;;;;;;;16.50;14.53;;;7.50;99.90;;;;;;4995144;28;20472;-82
2021/04/19 03:57:37;;;;;;;20.17;18.27;;;7.50;99.90;;;;;;4996734;28;20449;-83
2021/04/19 04:00:05;;;;;;;19.07;17.20;;;7.60;99.90;;;;;;4995977;28;20541;-81
2021/04/19 04:02:35;;;;;;;19.60;17.63;;;7.60;99.90;;;;;;4996093;28;20958;-82
2021/04/19 04:05:03;;;;;;;19.50;17.70;;;7.60;99.90;;;;;;4995897;28;20481;-82
2021/04/19 04:07:31;;;;;;;17.33;15.50;;;7.60;99.90;;;;;;4996099;28;20503;-83
2021/04/19 04:09:59;;;;;;;16.07;14.07;;;7.70;99.90;;;;;;4994919;28;20476;-81
2021/04/19 04:12:26;;;;;;;18.23;13.37;;;7.70;99.90;;;;;;4996197;28;20495;-83
2021/04/19 04:14:54;;;;;;;20.70;12.87;;;7.70;99.90;;;;;;4996221;28;20804;-84
2021/04/19 04:17:21;;;;;;;16.27;13.83;;;7.70;99.90;;;;;;4996231;28;20453;-82
2021/04/19 04:19:48;;;;;;;18.83;12.90;;;7.70;99.90;;;;;;4995764;28;20462;-82
2021/04/19 04:22:17;;;;;;;14.80;11.30;;;7.70;99.90;;;;;;4996359;28;20515;-83
2021/04/19 04:24:44;;;;;;;22.63;13.97;;;7.60;99.90;;;;;;4995129;28;20459;-84
2021/04/19 04:27:14;;;;;;;27.43;12.23;;;7.70;99.90;;;;;;4996153;28;20466;-83
2021/04/19 04:29:40;;;;;;;14.90;11.30;;;7.70;99.90;;;;;;4996092;28;20477;-83
2021/04/19 04:32:08;;;;;;;19.80;13.10;;;7.70;99.90;;;;;;4995535;28;20453;-82
2021/04/19 04:34:35;;;;;;;22.33;12.23;;;7.60;99.90;;;;;;4995942;28;20537;-84
2021/04/19 04:37:08;;;;;;;14.70;12.20;;;7.70;99.90;;;;;;4996081;28;20543;-83
2021/04/19 04:39:34;;;;;;;18.43;13.13;;;7.70;99.90;;;;;;4995116;28;20462;-81
2021/04/19 04:42:04;;;;;;;24.13;14.50;;;7.60;99.90;;;;;;4995578;28;20895;-84
2021/04/19 04:44:34;;;;;;;22.73;14.00;;;7.70;99.90;;;;;;4995821;28;20454;-84
2021/04/19 04:47:10;;;;;;;21.50;17.17;;;7.70;99.90;;;;;;4995926;28;20583;-85
2021/04/19 04:49:43;;;;;;;28.13;21.47;;;7.60;99.90;;;;;;4995435;28;20480;-83
2021/04/19 04:52:12;;;;;;;27.23;24.40;;;7.60;99.90;;;;;;4982036;28;20887;-83
2021/04/19 04:54:43;;;;;;;35.87;27.90;;;7.60;99.90;;;;;;4994484;28;20538;-84
2021/04/19 04:57:20;;;;;;;27.70;24.90;;;7.60;99.90;;;;;;4995820;28;20483;-83
2021/04/19 04:59:46;;;;;;;30.23;27.07;;;7.60;99.90;;;;;;4995251;28;20453;-84
2021/04/19 05:02:14;;;;;;;30.77;26.97;;;7.70;99.90;;;;;;4995771;28;20456;-82
2021/04/19 05:04:41;;;;;;;29.00;26.60;;;7.70;99.90;;;;;;4994461;28;20491;-80
2021/04/19 05:07:08;;;;;;;29.03;26.40;;;7.60;99.90;;;;;;4995393;28;20523;-84
2021/04/19 05:09:35;;;;;;;26.07;23.80;;;7.60;99.90;;;;;;4993765;28;20479;-83
2021/04/19 05:12:07;;;;;;;33.63;30.47;;;7.60;99.90;;;;;;4995250;28;20463;-84
2021/04/19 05:14:34;;;;;;;30.73;28.03;;;7.60;99.90;;;;;;4995506;28;20852;-83
2021/04/19 05:17:00;;;;;;;30.67;27.57;;;7.60;99.90;;;;;;4995036;28;20914;-84
2021/04/19 05:19:27;;;;;;;32.93;30.10;;;7.60;99.90;;;;;;4994236;28;20850;-84
2021/04/19 05:21:53;;;;;;;33.63;30.67;;;7.70;99.90;;;;;;4995124;28;20458;-84
2021/04/19 05:24:19;;;;;;;37.27;33.27;;;7.70;99.90;;;;;;4993211;28;20467;-81
2021/04/19 05:26:47;;;;;;;27.97;25.67;;;7.70;99.90;;;;;;4995124;28;20597;-82
2021/04/19 05:29:14;;;;;;;59.30;28.83;;;7.70;99.90;;;;;;4995346;28;20464;-81
2021/04/19 05:31:41;;;;;;;29.43;26.60;;;7.60;99.90;;;;;;4995127;28;20877;-80
2021/04/19 05:34:07;;;;;;;26.07;23.67;;;7.60;99.90;;;;;;4994775;28;20488;-83
2021/04/19 05:36:35;;;;;;;27.83;25.30;;;7.60;99.90;;;;;;4994877;28;20470;-83
2021/04/19 05:39:03;;;;;;;30.43;27.30;;;7.60;99.90;;;;;;4993858;28;20460;-81
2021/04/19 05:41:29;;;;;;;33.07;30.23;;;7.60;99.90;;;;;;4994588;28;20454;-86
2021/04/19 05:43:57;;;;;;;33.83;29.07;;;7.60;99.90;;;;;;4994603;28;20580;-82
2021/04/19 05:46:23;;;;;;;23.90;21.50;;;7.60;99.90;;;;;;4993757;28;20832;-83
2021/04/19 05:48:49;;;;;;;25.20;22.90;;;7.50;99.90;;;;;;4993566;28;20460;-80
2021/04/19 05:51:22;;;;;;;30.77;25.80;;;7.50;99.90;;;;;;4994142;28;20457;-84
2021/04/19 05:53:50;;;;;;;25.83;22.97;;;7.40;99.90;;;;;;4993413;28;20887;-82
2021/04/19 05:56:28;;;;;;;24.80;22.50;;;7.40;99.90;;;;;;4994744;28;20454;-82
2021/04/19 05:59:03;;;;;;;30.73;27.93;;;7.40;99.90;;;;;;4994568;28;20484;-83
2021/04/19 06:01:35;;;;;;;35.73;31.77;;;7.40;99.90;;;;;;4993765;28;20462;-83
2021/04/19 06:04:11;;;;;;;62.13;58.47;;;7.30;99.90;;;;;;4987602;28;20474;-89
2021/04/19 06:06:43;;;;;;;66.40;62.40;;;7.20;99.90;;;;;;4994413;28;20486;-90
2021/04/19 06:09:14;;;;;;;75.30;70.60;;;7.20;99.90;;;;;;4996369;28;20549;-83
2021/04/19 06:11:44;;;;;;;75.07;70.47;;;7.20;99.90;;;;;;4998252;28;20512;-85
2021/04/19 06:14:14;;;;;;;76.70;71.90;;;7.30;99.90;;;;;;4997805;28;20460;-82
2021/04/19 06:16:41;;;;;;;69.40;65.17;;;7.20;99.90;;;;;;4993756;28;20469;-85
2021/04/19 06:19:12;;;;;;;77.47;73.00;;;7.20;99.90;;;;;;4993637;28;20475;-82
2021/04/19 06:21:40;;;;;;;79.80;74.27;;;7.10;99.90;;;;;;4994465;28;20459;-82
2021/04/19 06:24:08;;;;;;;84.17;79.37;;;7.10;99.90;;;;;;4994503;28;20462;-88
2021/04/19 06:26:35;;;;;;;89.80;84.43;;;7.10;99.90;;;;;;4995643;28;20491;-88
2021/04/19 06:29:02;;;;;;;95.27;89.57;;;7.20;99.90;;;;;;4993828;28;20482;-90
2021/04/19 06:31:31;;;;;;;99.63;91.63;;;7.30;99.90;;;;;;4994033;28;20463;-80
2021/04/19 06:34:08;;;;;;;96.27;90.37;;;7.20;99.90;;;;;;4993443;28;20905;-87
2021/04/19 06:36:35;;;;;;;102.53;96.87;;;7.30;99.90;;;;;;4986224;28;20951;-87
2021/04/19 06:39:03;;;;;;;104.47;98.47;;;7.30;99.90;;;;;;4993516;28;20888;-86
2021/04/19 06:41:30;;;;;;;120.27;113.57;;;7.30;99.90;;;;;;4996318;28;20944;-91
2021/04/19 06:43:57;;;;;;;119.47;112.60;;;7.30;99.90;;;;;;4995284;28;20982;-90
2021/04/19 06:46:26;;;;;;;126.30;119.57;;;7.40;99.90;;;;;;4998208;28;20494;-89
2021/04/19 06:48:54;;;;;;;117.27;111.17;;;7.40;99.90;;;;;;4996181;28;20459;-89
2021/04/19 06:51:21;;;;;;;113.90;107.57;;;7.40;99.90;;;;;;4988134;28;20455;-90
2021/04/19 06:53:50;;;;;;;125.37;117.30;;;7.40;99.90;;;;;;4994073;28;20452;-89
2021/04/19 06:56:23;;;;;;;113.60;106.00;;;7.50;99.90;;;;;;4992775;28;20511;-83
2021/04/19 06:58:52;;;;;;;116.17;110.03;;;7.50;99.90;;;;;;4993042;28;20902;-90
2021/04/19 07:01:20;;;;;;;125.17;117.93;;;7.60;99.90;;;;;;4993685;28;20556;-92
2021/04/19 07:03:55;;;;;;;116.17;108.30;;;7.80;99.90;;;;;;4993142;28;20584;-91
2021/04/19 07:06:26;;;;;;;105.57;98.87;;;7.80;99.90;;;;;;4985857;28;20482;-83
2021/04/19 07:08:56;;;;;;;117.13;110.90;;;7.80;99.90;;;;;;4993126;28;20481;-88
2021/04/19 07:11:24;;;;;;;108.00;101.40;;;7.80;99.90;;;;;;4992893;28;20562;-89
2021/04/19 07:13:50;;;;;;;96.70;90.37;;;7.70;99.90;;;;;;4987866;28;20464;-86
2021/04/19 07:16:20;;;;;;;100.57;94.33;;;7.60;99.90;;;;;;4992042;28;20537;-85
2021/04/19 07:18:47;;;;;;;100.03;92.93;;;7.60;99.90;;;;;;4992024;28;20460;-85
2021/04/19 07:21:14;;;;;;;96.17;90.60;;;7.60;99.90;;;;;;4992162;28;20469;-86
2021/04/19 07:23:41;;;;;;;105.97;99.77;;;7.60;99.90;;;;;;4990726;28;20493;-88
2021/04/19 07:26:07;;;;;;;101.60;94.87;;;7.60;99.90;;;;;;4994045;28;20485;-87
2021/04/19 07:28:37;;;;;;;105.30;98.80;;;7.60;99.90;;;;;;4994621;28;20453;-89
2021/04/19 07:31:04;;;;;;;106.43;100.23;;;7.70;99.90;;;;;;4997372;28;20840;-89
2021/04/19 07:33:33;;;;;;;110.70;104.13;;;7.70;99.90;;;;;;4997153;28;20468;-85
2021/04/19 07:36:14;;;;;;;130.70;122.97;;;7.80;99.90;;;;;;4997470;28;20518;-87
2021/04/19 07:38:41;;;;;;;123.23;116.30;;;7.90;99.90;;;;;;4984645;28;20252;-83
2021/04/19 07:41:07;;;;;;;112.30;105.17;;;7.80;99.90;;;;;;4982486;28;20457;-84
2021/04/19 07:43:37;;;;;;;114.07;106.37;;;7.90;99.90;;;;;;4992231;28;20523;-87
2021/04/19 07:46:07;;;;;;;121.10;111.60;;;8.00;99.90;;;;;;5003648;28;20553;-88
2021/04/19 07:48:37;;;;;;;122.70;113.07;;;8.00;99.90;;;;;;5001795;28;20455;-87
2021/04/19 07:51:29;;;;;;;118.17;111.97;;;8.20;99.90;;;;;;4996815;28;20524;-85
2021/04/19 07:54:20;;;;;;;121.73;114.13;;;8.30;99.90;;;;;;5000119;28;20507;-87
2021/04/19 07:57:04;;;;;;;113.07;106.37;;;8.40;99.90;;;;;;4978469;28;20454;-85
2021/04/19 07:59:32;;;;;;;101.70;95.97;;;8.40;99.90;;;;;;4983163;28;21029;-86
2021/04/19 08:02:00;;;;;;;109.63;102.90;;;8.40;99.90;;;;;;4999309;28;20460;-86
2021/04/19 08:04:26;;;;;;;83.60;78.37;;;8.60;99.90;;;;;;4996289;28;20831;-86
2021/04/19 08:06:53;;;;;;;86.67;81.17;;;8.40;99.90;;;;;;4997342;28;20496;-86
2021/04/19 08:09:24;;;;;;;104.40;96.80;;;8.60;99.90;;;;;;4996369;28;20454;-88
2021/04/19 08:11:56;;;;;;;106.30;99.00;;;8.70;99.90;;;;;;4995634;28;20460;-85
2021/04/19 08:14:23;;;;;;;102.10;94.43;;;8.90;99.90;;;;;;4995698;28;20193;-86
2021/04/19 08:17:04;;;;;;;116.67;109.63;;;9.20;99.90;;;;;;4997038;28;20453;-84
2021/04/19 08:19:33;;;;;;;105.93;99.27;;;9.60;99.90;;;;;;4996107;28;20461;-84
2021/04/19 08:22:12;;;;;;;86.03;80.00;;;9.80;99.90;;;;;;4996554;28;20450;-85
2021/04/19 08:24:39;;;;;;;68.53;63.83;;;10.00;99.90;;;;;;4995373;28;20543;-86
2021/04/19 08:27:06;;;;;;;65.60;60.30;;;10.20;99.90;;;;;;4995535;28;20477;-83
2021/04/19 08:29:36;;;;;;;50.23;45.73;;;10.30;99.90;;;;;;4995445;28;20930;-83
2021/04/19 08:32:04;;;;;;;35.00;29.93;;;10.50;99.90;;;;;;4995304;28;20593;-81
2021/04/19 08:34:30;;;;;;;45.87;25.67;;;10.30;99.90;;;;;;4995800;28;20454;-82
2021/04/19 08:37:02;;;;;;;28.70;22.90;;;10.00;99.90;;;;;;4995485;28;20513;-82
2021/04/19 08:39:29;;;;;;;34.67;25.20;;;9.80;99.90;;;;;;4994963;28;20597;-81
2021/04/19 08:41:59;;;;;;;34.57;26.07;;;9.90;99.90;;;;;;4995604;28;20456;-83
2021/04/19 08:44:26;;;;;;;36.67;28.10;;;10.00;99.90;;;;;;4996003;28;20474;-83
2021/04/19 08:46:55;;;;;;;31.23;22.63;;;10.00;99.90;;;;;;4995750;28;20591;-82
2021/04/19 08:49:22;;;;;;;60.93;23.40;;;9.90;99.90;;;;;;4995498;28;20543;-84
2021/04/19 08:51:48;;;;;;;32.93;19.80;;;9.90;99.90;;;;;;4995215;28;20891;-83
2021/04/19 08:54:15;;;;;;;23.90;17.67;;;9.80;99.90;;;;;;4996352;28;20552;-80
2021/04/19 08:56:41;;;;;;;29.53;17.77;;;9.70;99.90;;;;;;4994975;28;20450;-82
2021/04/19 08:59:09;;;;;;;23.93;17.33;;;9.60;99.90;;;;;;4994692;28;20458;-82
2021/04/19 09:01:35;;;;;;;27.93;21.10;;;9.50;99.90;;;;;;4995484;28;20468;-81
2021/04/19 09:04:02;;;;;;;29.00;23.43;;;9.40;99.90;;;;;;4995372;28;20470;-84
2021/04/19 09:06:43;;;;;;;35.73;27.97;;;9.40;99.90;;;;;;4995563;28;20485;-84
2021/04/19 09:09:13;;;;;;;31.23;28.23;;;9.40;99.90;;;;;;4994239;28;20495;-80
2021/04/19 09:11:40;;;;;;;31.93;28.53;;;9.60;99.90;;;;;;4977755;28;20866;-83
2021/04/19 09:14:10;;;;;;;27.83;24.70;;;9.60;99.90;;;;;;4995037;28;20474;-82
2021/04/19 09:16:38;;;;;;;34.83;30.57;;;9.60;99.90;;;;;;4994411;28;20459;-83
2021/04/19 09:19:06;;;;;;;43.37;39.60;;;9.90;99.90;;;;;;4995401;28;20550;-83
2021/04/19 09:21:34;;;;;;;35.30;29.53;;;10.40;99.90;;;;;;4995154;28;20948;-83
2021/04/19 09:24:01;;;;;;;43.60;38.50;;;10.80;99.90;;;;;;4993643;28;20454;-80
2021/04/19 09:26:46;;;;;;;30.20;23.10;;;11.20;99.90;;;;;;4994795;28;20490;-82
2021/04/19 09:29:44;;;;;;;30.37;17.10;;;11.60;92.80;;;;;;4993946;28;20470;-78
2021/04/19 09:32:19;;;;;;;28.33;13.63;;;11.80;85.30;;;;;;4993882;28;20842;-79
2021/04/19 09:34:48;;;;;;;21.47;11.57;;;11.70;73.70;;;;;;4994708;28;20460;-83
2021/04/19 09:37:17;;;;;;;33.13;14.20;;;11.50;70.40;;;;;;4994530;28;20538;-81
2021/04/19 09:39:54;;;;;;;25.10;12.00;;;11.70;67.90;;;;;;4994295;28;20482;-81
2021/04/19 09:42:54;;;;;;;29.43;13.93;;;11.70;69.40;;;;;;4995018;28;20817;-84
2021/04/19 09:45:53;;;;;;;30.90;12.70;;;11.60;65.20;;;;;;4994106;28;20454;-83
2021/04/19 09:48:43;;;;;;;25.70;12.57;;;11.90;59.20;;;;;;4988014;28;20453;-83
2021/04/19 09:51:15;;;;;;;28.47;13.73;;;12.30;63.10;;;;;;4993414;28;20492;-84
2021/04/19 09:53:46;;;;;;;26.57;11.27;;;12.70;56.50;;;;;;4993709;28;20866;-82
2021/04/19 09:56:13;;;;;;;38.13;16.03;;;13.20;53.30;;;;;;4994302;28;20540;-82
2021/04/19 09:58:41;;;;;;;28.23;11.37;;;13.50;42.70;;;;;;4994636;28;20553;-80
2021/04/19 10:01:08;;;;;;;27.53;11.50;;;13.30;39.20;;;;;;4994008;28;20980;-85
2021/04/19 10:03:35;;;;;;;27.53;12.33;;;13.50;40.10;;;;;;4994399;28;20531;-80
2021/04/19 10:06:03;;;;;;;32.33;12.30;;;13.80;37.90;;;;;;4995068;28;20985;-82
2021/04/19 10:08:31;;;;;;;28.07;10.80;;;13.80;34.50;;;;;;4993881;28;20515;-80
2021/04/19 10:10:59;;;;;;;32.47;11.57;;;13.70;30.50;;;;;;4994965;28;20885;-80
2021/04/19 10:13:28;;;;;;;35.40;14.50;;;13.70;29.60;;;;;;4994792;28;20819;-82
2021/04/19 10:16:09;;;;;;;32.80;13.73;;;13.10;32.60;;;;;;4994602;28;20457;-80
2021/04/19 10:18:37;;;;;;;39.10;15.17;;;12.90;37.70;;;;;;4994364;28;20449;-80
2021/04/19 10:21:04;;;;;;;33.30;14.10;;;12.60;39.50;;;;;;4994179;28;20495;-81
2021/04/19 10:23:33;;;;;;;39.07;13.47;;;12.60;42.00;;;;;;4993123;28;20951;-83
2021/04/19 10:25:59;;;;;;;36.60;16.57;;;12.60;39.50;;;;;;4994091;28;20515;-83
2021/04/19 10:28:27;;;;;;;32.40;15.47;;;12.50;46.20;;;;;;4994007;28;20951;-82
2021/04/19 10:31:09;;;;;;;35.10;14.90;;;12.10;42.50;;;;;;4994524;28;20538;-83
2021/04/19 10:33:37;;;;;;;34.57;15.73;;;11.60;48.60;;;;;;4994281;28;20454;-80
2021/04/19 10:36:24;;;;;;;37.20;15.20;;;11.40;50.00;;;;;;4994179;28;20954;-83
2021/04/19 10:38:52;;;;;;;45.40;16.93;;;11.50;53.90;;;;;;4987014;28;20538;-82
2021/04/19 10:41:29;;;;;;;32.87;15.10;;;11.50;56.00;;;;;;4994100;28;20456;-82
2021/04/19 10:43:56;;;;;;;49.43;17.37;;;11.50;60.30;;;;;;4994430;28;20801;-81
2021/04/19 10:46:24;;;;;;;35.23;16.90;;;11.60;54.10;;;;;;4994249;28;20519;-82
2021/04/19 10:48:54;;;;;;;32.03;15.67;;;11.50;51.40;;;;;;4990738;28;20547;-81
2021/04/19 10:51:23;;;;;;;28.83;16.50;;;11.70;51.60;;;;;;4992577;28;20460;-81
2021/04/19 10:53:50;;;;;;;34.50;17.20;;;11.60;52.40;;;;;;4991800;28;20515;-83
2021/04/19 10:56:24;;;;;;;50.03;17.67;;;11.90;52.90;;;;;;4993733;28;20539;-81
2021/04/19 10:58:53;;;;;;;39.20;17.73;;;12.90;46.60;;;;;;4993980;28;20457;-81
2021/04/19 11:01:27;;;;;;;35.30;15.37;;;14.00;35.30;;;;;;4992643;28;20489;-84
2021/04/19 11:03:58;;;;;;;40.07;17.50;;;15.10;28.60;;;;;;4991441;28;20531;-82
2021/04/19 11:06:25;;;;;;;35.60;14.90;;;14.80;25.50;;;;;;4992867;28;20572;-82
2021/04/19 11:08:57;;;;;;;37.43;15.67;;;15.30;26.00;;;;;;4991839;28;20813;-80
2021/04/19 11:11:38;;;;;;;35.17;14.93;;;15.40;21.40;;;;;;4992608;28;20446;-83
2021/04/19 11:14:18;;;;;;;32.83;11.93;;;15.50;21.10;;;;;;4992795;28;20458;-83
2021/04/19 11:16:53;;;;;;;42.20;16.50;;;15.50;18.70;;;;;;4992781;28;20454;-81
2021/04/19 11:19:32;;;;;;;43.27;15.40;;;16.00;16.90;;;;;;4992342;28;20544;-82
2021/04/19 11:21:59;;;;;;;39.40;15.07;;;16.50;16.90;;;;;;4992647;28;20461;-83
2021/04/19 11:24:36;;;;;;;38.27;14.37;;;17.30;12.60;;;;;;4991305;28;20964;-84
2021/04/19 11:27:11;;;;;;;45.93;15.57;;;17.40;9.30;;;;;;4990921;28;20496;-81
2021/04/19 11:29:45;;;;;;;42.70;14.97;;;17.40;11.50;;;;;;4985806;28;20438;-84
2021/04/19 11:32:28;;;;;;;39.40;15.00;;;18.40;11.10;;;;;;4992268;28;20460;-83
2021/04/19 11:34:55;;;;;;;41.00;15.77;;;18.80;7.70;;;;;;4992239;28;20546;-82
2021/04/19 11:37:33;;;;;;;47.47;14.60;;;18.40;7.00;;;;;;4992353;28;20457;-84
2021/04/19 11:40:00;;;;;;;42.57;13.03;;;17.40;10.40;;;;;;4991524;28;20802;-83
2021/04/19 11:42:32;;;;;;;40.60;12.70;;;17.20;8.00;;;;;;4992666;28;20816;-82
2021/04/19 11:44:58;;;;;;;46.83;15.10;;;17.80;8.70;;;;;;4992680;28;20485;-84
2021/04/19 11:47:25;;;;;;;40.50;13.97;;;18.40;10.50;;;;;;4992823;28;20543;-81
2021/04/19 11:49:56;;;;;;;37.33;13.00;;;19.00;5.50;;;;;;4992372;28;20489;-83
2021/04/19 11:52:24;;;;;;;40.47;11.97;;;19.10;5.60;;;;;;4992409;28;20556;-84
2021/04/19 11:54:50;;;;;;;41.90;12.90;;;19.70;1.10;;;;;;4990971;28;20819;-83
2021/04/19 11:57:17;;;;;;;44.03;13.17;;;20.80;1.00;;;;;;4992115;28;20507;-83
2021/04/19 11:59:43;;;;;;;46.67;12.07;;;21.40;1.00;;;;;;4991926;28;20552;-83
2021/04/19 12:02:10;;;;;;;43.47;12.10;;;21.50;1.00;;;;;;4992133;28;20488;-84
2021/04/19 12:04:37;;;;;;;45.50;14.40;;;19.90;1.00;;;;;;4992106;28;20478;-83
2021/04/19 12:07:04;;;;;;;46.70;13.77;;;18.80;1.30;;;;;;4992134;28;20848;-82
2021/04/19 12:09:39;;;;;;;43.13;11.50;;;19.10;1.80;;;;;;4991043;28;20461;-84
2021/04/19 12:12:06;;;;;;;44.53;12.80;;;19.50;1.70;;;;;;4992161;28;20484;-83
2021/04/19 12:14:32;;;;;;;42.70;13.07;;;19.30;1.00;;;;;;4992724;28;20465;-84
2021/04/19 12:16:58;;;;;;;43.77;12.00;;;20.10;1.00;;;;;;4995244;28;20472;-82
2021/04/19 12:19:25;;;;;;;42.60;12.10;;;20.70;1.00;;;;;;4995673;28;20584;-82
2021/04/19 12:21:51;;;;;;;46.10;14.03;;;19.90;1.00;;;;;;4995713;28;20461;-83
2021/04/19 12:24:19;;;;;;;47.87;12.70;;;18.70;1.00;;;;;;4995823;28;20462;-82
2021/04/19 12:26:47;;;;;;;43.90;11.30;;;18.90;1.00;;;;;;4996095;28;20565;-81
2021/04/19 12:29:13;;;;;;;43.47;10.67;;;18.30;1.00;;;;;;4995265;28;20488;-81
2021/04/19 12:31:40;;;;;;;40.40;11.33;;;17.10;5.00;;;;;;4996340;28;20477;-84
2021/04/19 12:34:06;;;;;;;37.23;9.67;;;17.20;8.80;;;;;;4996232;28;20889;-83
2021/04/19 12:36:33;;;;;;;38.53;11.13;;;17.70;4.60;;;;;;4996023;28;20604;-84
2021/04/19 12:39:02;;;;;;;38.20;10.30;;;17.90;4.20;;;;;;4995304;28;20450;-85
2021/04/19 12:41:29;;;;;;;38.17;12.00;;;18.20;3.20;;;;;;4996301;28;20545;-84
2021/04/19 12:44:00;;;;;;;35.60;9.30;;;19.80;1.00;;;;;;4996081;28;20829;-83
2021/04/19 12:49:17;;;;;;;38.83;8.87;;;21.90;1.00;;;;;;4995159;28;20458;-81
2021/04/19 12:51:44;;;;;;;43.10;11.30;;;21.50;1.00;;;;;;4995792;28;20458;-81